sensor_id;sensor_type;location;lat;lon;timestamp;P1;durP1;ratioP1;P2;durP2;ratioP2
36457;SDS011;22480;50.546;12.292;2022-08-19T00:00:29;192.32;;;63.53;;
36457;SDS011;22480;50.546;12.292;2022-08-19T00:02:55;147.93;;;59.83;;
36457;SDS011;22480;50.546;12.292;2022-08-19T00:05:21;169.93;;;63.22;;
36457;SDS011;22480;50.546;12.292;2022-08-19T00:07:47;203.55;;;62.20;;
36457;SDS011;22480;50.546;12.292;2022-08-19T00:10:14;202.70;;;63.50;;
36457;SDS011;22480;50.546;12.292;2022-08-19T00:12:42;145.07;;;58.50;;
36457;SDS011;22480;50.546;12.292;2022-08-19T00:15:09;156.02;;;59.05;;
36457;SDS011;22480;50.546;12.292;2022-08-19T00:17:38;157.70;;;57.03;;
36457;SDS011;22480;50.546;12.292;2022-08-19T00:20:05;172.80;;;57.40;;
36457;SDS011;22480;50.546;12.292;2022-08-19T00:22:31;150.85;;;58.40;;
36457;SDS011;22480;50.546;12.292;2022-08-19T00:24:57;182.20;;;58.45;;
36457;SDS011;22480;50.546;12.292;2022-08-19T00:27:23;199.40;;;58.83;;
36457;SDS011;22480;50.546;12.292;2022-08-19T00:29:49;176.80;;;59.63;;
36457;SDS011;22480;50.546;12.292;2022-08-19T00:32:15;197.07;;;62.38;;
36457;SDS011;22480;50.546;12.292;2022-08-19T00:34:41;207.27;;;61.42;;
36457;SDS011;22480;50.546;12.292;2022-08-19T00:37:08;205.85;;;64.03;;
36457;SDS011;22480;50.546;12.292;2022-08-19T00:39:34;194.55;;;65.75;;
36457;SDS011;22480;50.546;12.292;2022-08-19T00:42:00;183.50;;;66.32;;
36457;SDS011;22480;50.546;12.292;2022-08-19T00:44:26;196.02;;;66.70;;
36457;SDS011;22480;50.546;12.292;2022-08-19T00:46:54;196.73;;;66.90;;
36457;SDS011;22480;50.546;12.292;2022-08-19T00:49:25;191.38;;;68.55;;
36457;SDS011;22480;50.546;12.292;2022-08-19T00:52:04;190.90;;;65.80;;
36457;SDS011;22480;50.546;12.292;2022-08-19T00:54:36;190.88;;;67.55;;
36457;SDS011;22480;50.546;12.292;2022-08-19T00:59:34;228.93;;;71.28;;
36457;SDS011;22480;50.546;12.292;2022-08-19T01:02:06;224.35;;;72.35;;
36457;SDS011;22480;50.546;12.292;2022-08-19T01:04:35;250.52;;;76.15;;
36457;SDS011;22480;50.546;12.292;2022-08-19T01:07:05;248.55;;;77.13;;
36457;SDS011;22480;50.546;12.292;2022-08-19T01:09:32;333.27;;;84.55;;
36457;SDS011;22480;50.546;12.292;2022-08-19T01:11:59;286.55;;;81.10;;
36457;SDS011;22480;50.546;12.292;2022-08-19T01:14:25;325.73;;;82.63;;
36457;SDS011;22480;50.546;12.292;2022-08-19T01:16:52;251.43;;;79.80;;
36457;SDS011;22480;50.546;12.292;2022-08-19T01:21:59;230.60;;;74.78;;
36457;SDS011;22480;50.546;12.292;2022-08-19T01:24:29;228.15;;;75.63;;
36457;SDS011;22480;50.546;12.292;2022-08-19T01:26:58;287.27;;;81.43;;
36457;SDS011;22480;50.546;12.292;2022-08-19T01:31:54;272.77;;;79.13;;
36457;SDS011;22480;50.546;12.292;2022-08-19T01:34:24;250.57;;;78.63;;
36457;SDS011;22480;50.546;12.292;2022-08-19T01:36:52;277.77;;;82.78;;
36457;SDS011;22480;50.546;12.292;2022-08-19T01:39:23;307.35;;;83.30;;
36457;SDS011;22480;50.546;12.292;2022-08-19T01:41:52;347.67;;;85.47;;
36457;SDS011;22480;50.546;12.292;2022-08-19T01:44:21;281.52;;;82.03;;
36457;SDS011;22480;50.546;12.292;2022-08-19T01:46:51;301.85;;;81.38;;
36457;SDS011;22480;50.546;12.292;2022-08-19T01:51:50;290.23;;;82.85;;
36457;SDS011;22480;50.546;12.292;2022-08-19T01:54:20;319.65;;;85.70;;
36457;SDS011;22480;50.546;12.292;2022-08-19T01:56:49;302.27;;;87.57;;
36457;SDS011;22480;50.546;12.292;2022-08-19T01:59:26;319.42;;;83.50;;
36457;SDS011;22480;50.546;12.292;2022-08-19T02:04:22;324.20;;;87.28;;
36457;SDS011;22480;50.546;12.292;2022-08-19T02:06:52;316.98;;;88.47;;
36457;SDS011;22480;50.546;12.292;2022-08-19T02:09:18;345.67;;;89.70;;
36457;SDS011;22480;50.546;12.292;2022-08-19T02:11:45;343.55;;;91.13;;
36457;SDS011;22480;50.546;12.292;2022-08-19T02:14:11;392.70;;;93.70;;
36457;SDS011;22480;50.546;12.292;2022-08-19T02:16:39;395.58;;;96.80;;
36457;SDS011;22480;50.546;12.292;2022-08-19T02:19:07;350.23;;;91.85;;
36457;SDS011;22480;50.546;12.292;2022-08-19T02:21:37;334.73;;;88.35;;
36457;SDS011;22480;50.546;12.292;2022-08-19T02:26:33;429.05;;;95.40;;
36457;SDS011;22480;50.546;12.292;2022-08-19T02:29:03;413.40;;;98.45;;
36457;SDS011;22480;50.546;12.292;2022-08-19T02:33:59;436.80;;;95.85;;
36457;SDS011;22480;50.546;12.292;2022-08-19T02:36:27;440.88;;;98.72;;
36457;SDS011;22480;50.546;12.292;2022-08-19T02:38:53;469.25;;;99.75;;
36457;SDS011;22480;50.546;12.292;2022-08-19T02:41:23;458.25;;;102.55;;
36457;SDS011;22480;50.546;12.292;2022-08-19T02:43:55;482.67;;;102.90;;
36457;SDS011;22480;50.546;12.292;2022-08-19T02:48:53;453.70;;;100.65;;
36457;SDS011;22480;50.546;12.292;2022-08-19T02:51:30;394.00;;;94.15;;
36457;SDS011;22480;50.546;12.292;2022-08-19T02:54:02;347.42;;;83.30;;
36457;SDS011;22480;50.546;12.292;2022-08-19T02:56:33;376.67;;;90.72;;
36457;SDS011;22480;50.546;12.292;2022-08-19T02:59:01;455.88;;;104.95;;
36457;SDS011;22480;50.546;12.292;2022-08-19T03:01:31;412.85;;;95.28;;
36457;SDS011;22480;50.546;12.292;2022-08-19T03:06:30;429.70;;;94.32;;
36457;SDS011;22480;50.546;12.292;2022-08-19T03:09:00;347.30;;;88.00;;
36457;SDS011;22480;50.546;12.292;2022-08-19T03:13:57;445.10;;;91.60;;
36457;SDS011;22480;50.546;12.292;2022-08-19T03:16:24;397.35;;;85.05;;
36457;SDS011;22480;50.546;12.292;2022-08-19T03:18:55;470.75;;;103.25;;
36457;SDS011;22480;50.546;12.292;2022-08-19T03:21:27;548.78;;;105.43;;
36457;SDS011;22480;50.546;12.292;2022-08-19T03:23:57;446.67;;;91.07;;
36457;SDS011;22480;50.546;12.292;2022-08-19T03:26:26;465.60;;;95.20;;
36457;SDS011;22480;50.546;12.292;2022-08-19T03:28:53;398.00;;;91.70;;
36457;SDS011;22480;50.546;12.292;2022-08-19T03:31:20;419.63;;;87.93;;
36457;SDS011;22480;50.546;12.292;2022-08-19T03:33:51;553.90;;;106.53;;
36457;SDS011;22480;50.546;12.292;2022-08-19T03:38:52;593.58;;;100.55;;
36457;SDS011;22480;50.546;12.292;2022-08-19T03:41:22;607.75;;;103.15;;
36457;SDS011;22480;50.546;12.292;2022-08-19T03:43:57;544.33;;;97.53;;
36457;SDS011;22480;50.546;12.292;2022-08-19T03:48:55;711.30;;;102.25;;
36457;SDS011;22480;50.546;12.292;2022-08-19T03:51:24;627.75;;;101.72;;
36457;SDS011;22480;50.546;12.292;2022-08-19T03:53:59;878.88;;;121.30;;
36457;SDS011;22480;50.546;12.292;2022-08-19T03:58:56;811.15;;;111.57;;
36457;SDS011;22480;50.546;12.292;2022-08-19T04:03:53;722.33;;;108.07;;
36457;SDS011;22480;50.546;12.292;2022-08-19T04:06:25;620.65;;;100.22;;
36457;SDS011;22480;50.546;12.292;2022-08-19T04:08:56;698.13;;;104.72;;
36457;SDS011;22480;50.546;12.292;2022-08-19T04:11:29;559.22;;;97.85;;
36457;SDS011;22480;50.546;12.292;2022-08-19T04:14:01;626.35;;;104.97;;
36457;SDS011;22480;50.546;12.292;2022-08-19T04:16:28;572.95;;;103.65;;
36457;SDS011;22480;50.546;12.292;2022-08-19T04:18:54;607.95;;;108.90;;
36457;SDS011;22480;50.546;12.292;2022-08-19T04:21:24;680.90;;;110.55;;
36457;SDS011;22480;50.546;12.292;2022-08-19T04:23:52;640.30;;;106.90;;
36457;SDS011;22480;50.546;12.292;2022-08-19T04:26:22;693.70;;;116.32;;
36457;SDS011;22480;50.546;12.292;2022-08-19T04:28:53;568.72;;;104.65;;
36457;SDS011;22480;50.546;12.292;2022-08-19T04:33:56;452.65;;;95.72;;
36457;SDS011;22480;50.546;12.292;2022-08-19T04:36:28;383.48;;;89.63;;
36457;SDS011;22480;50.546;12.292;2022-08-19T04:39:00;385.88;;;93.85;;
36457;SDS011;22480;50.546;12.292;2022-08-19T04:44:13;317.15;;;87.35;;
36457;SDS011;22480;50.546;12.292;2022-08-19T04:49:10;275.60;;;82.07;;
36457;SDS011;22480;50.546;12.292;2022-08-19T04:54:07;280.23;;;81.10;;
36457;SDS011;22480;50.546;12.292;2022-08-19T04:59:04;214.85;;;75.22;;
36457;SDS011;22480;50.546;12.292;2022-08-19T05:04:01;227.43;;;78.82;;
36457;SDS011;22480;50.546;12.292;2022-08-19T05:09:02;253.13;;;80.00;;
36457;SDS011;22480;50.546;12.292;2022-08-19T05:11:35;188.60;;;65.90;;
36457;SDS011;22480;50.546;12.292;2022-08-19T05:14:05;177.18;;;59.30;;
36457;SDS011;22480;50.546;12.292;2022-08-19T05:16:32;181.10;;;56.58;;
36457;SDS011;22480;50.546;12.292;2022-08-19T05:18:58;128.80;;;50.15;;
36457;SDS011;22480;50.546;12.292;2022-08-19T05:21:43;125.25;;;47.92;;
36457;SDS011;22480;50.546;12.292;2022-08-19T05:24:30;108.00;;;45.33;;
36457;SDS011;22480;50.546;12.292;2022-08-19T05:29:28;105.88;;;43.15;;
36457;SDS011;22480;50.546;12.292;2022-08-19T05:31:57;130.75;;;47.83;;
36457;SDS011;22480;50.546;12.292;2022-08-19T05:36:55;144.63;;;52.53;;
36457;SDS011;22480;50.546;12.292;2022-08-19T05:41:52;162.45;;;55.15;;
36457;SDS011;22480;50.546;12.292;2022-08-19T05:44:26;169.35;;;55.22;;
36457;SDS011;22480;50.546;12.292;2022-08-19T05:47:02;195.07;;;62.10;;
36457;SDS011;22480;50.546;12.292;2022-08-19T05:49:32;139.63;;;55.92;;
36457;SDS011;22480;50.546;12.292;2022-08-19T05:54:29;163.15;;;58.38;;
36457;SDS011;22480;50.546;12.292;2022-08-19T05:59:25;226.27;;;66.75;;
36457;SDS011;22480;50.546;12.292;2022-08-19T06:01:53;166.65;;;61.35;;
36457;SDS011;22480;50.546;12.292;2022-08-19T06:04:23;196.65;;;65.45;;
36457;SDS011;22480;50.546;12.292;2022-08-19T06:06:51;210.32;;;67.05;;
36457;SDS011;22480;50.546;12.292;2022-08-19T06:09:21;241.07;;;71.22;;
36457;SDS011;22480;50.546;12.292;2022-08-19T06:14:20;155.65;;;60.03;;
36457;SDS011;22480;50.546;12.292;2022-08-19T06:16:51;169.70;;;65.25;;
36457;SDS011;22480;50.546;12.292;2022-08-19T06:19:21;205.88;;;69.40;;
36457;SDS011;22480;50.546;12.292;2022-08-19T06:24:21;194.25;;;62.72;;
36457;SDS011;22480;50.546;12.292;2022-08-19T06:26:55;220.50;;;65.93;;
36457;SDS011;22480;50.546;12.292;2022-08-19T06:29:25;159.30;;;59.08;;
36457;SDS011;22480;50.546;12.292;2022-08-19T06:31:55;215.02;;;67.63;;
36457;SDS011;22480;50.546;12.292;2022-08-19T06:34:24;201.25;;;65.40;;
36457;SDS011;22480;50.546;12.292;2022-08-19T06:36:53;227.63;;;68.32;;
36457;SDS011;22480;50.546;12.292;2022-08-19T06:39:24;206.60;;;67.18;;
36457;SDS011;22480;50.546;12.292;2022-08-19T06:41:55;243.10;;;72.13;;
36457;SDS011;22480;50.546;12.292;2022-08-19T06:44:28;197.05;;;64.72;;
36457;SDS011;22480;50.546;12.292;2022-08-19T06:47:01;208.18;;;69.03;;
36457;SDS011;22480;50.546;12.292;2022-08-19T06:49:32;234.20;;;70.38;;
36457;SDS011;22480;50.546;12.292;2022-08-19T06:54:28;233.05;;;71.63;;
36457;SDS011;22480;50.546;12.292;2022-08-19T06:57:00;235.23;;;70.72;;
36457;SDS011;22480;50.546;12.292;2022-08-19T06:59:31;310.00;;;81.43;;
36457;SDS011;22480;50.546;12.292;2022-08-19T07:02:03;252.18;;;74.57;;
36457;SDS011;22480;50.546;12.292;2022-08-19T07:04:31;301.00;;;81.72;;
36457;SDS011;22480;50.546;12.292;2022-08-19T07:07:00;224.43;;;69.05;;
36457;SDS011;22480;50.546;12.292;2022-08-19T07:11:55;262.48;;;70.88;;
36457;SDS011;22480;50.546;12.292;2022-08-19T07:14:22;144.82;;;56.90;;
36457;SDS011;22480;50.546;12.292;2022-08-19T07:16:50;194.18;;;62.15;;
36457;SDS011;22480;50.546;12.292;2022-08-19T07:19:21;214.02;;;65.82;;
36457;SDS011;22480;50.546;12.292;2022-08-19T07:21:50;167.70;;;61.22;;
36457;SDS011;22480;50.546;12.292;2022-08-19T07:24:20;194.85;;;62.13;;
36457;SDS011;22480;50.546;12.292;2022-08-19T07:26:51;247.18;;;70.68;;
36457;SDS011;22480;50.546;12.292;2022-08-19T07:29:20;257.42;;;71.40;;
36457;SDS011;22480;50.546;12.292;2022-08-19T07:31:49;236.23;;;70.47;;
36457;SDS011;22480;50.546;12.292;2022-08-19T07:34:18;262.60;;;68.35;;
36457;SDS011;22480;50.546;12.292;2022-08-19T07:36:47;245.18;;;69.55;;
36457;SDS011;22480;50.546;12.292;2022-08-19T07:39:15;256.08;;;73.35;;
36457;SDS011;22480;50.546;12.292;2022-08-19T07:41:46;307.08;;;73.43;;
36457;SDS011;22480;50.546;12.292;2022-08-19T07:44:15;264.13;;;71.07;;
36457;SDS011;22480;50.546;12.292;2022-08-19T07:46:45;242.38;;;71.78;;
36457;SDS011;22480;50.546;12.292;2022-08-19T07:49:16;176.10;;;62.17;;
36457;SDS011;22480;50.546;12.292;2022-08-19T07:52:04;209.73;;;66.30;;
36457;SDS011;22480;50.546;12.292;2022-08-19T07:54:34;184.55;;;64.43;;
36457;SDS011;22480;50.546;12.292;2022-08-19T07:57:02;175.57;;;60.67;;
36457;SDS011;22480;50.546;12.292;2022-08-19T07:59:29;200.30;;;65.30;;
36457;SDS011;22480;50.546;12.292;2022-08-19T08:01:57;170.60;;;60.25;;
36457;SDS011;22480;50.546;12.292;2022-08-19T08:07:11;152.45;;;56.25;;
36457;SDS011;22480;50.546;12.292;2022-08-19T08:09:55;197.60;;;65.00;;
36457;SDS011;22480;50.546;12.292;2022-08-19T08:12:28;163.25;;;61.00;;
36457;SDS011;22480;50.546;12.292;2022-08-19T08:14:59;174.35;;;62.40;;
36457;SDS011;22480;50.546;12.292;2022-08-19T08:17:30;111.63;;;50.25;;
36457;SDS011;22480;50.546;12.292;2022-08-19T08:19:57;144.90;;;54.83;;
36457;SDS011;22480;50.546;12.292;2022-08-19T08:22:25;149.13;;;53.85;;
36457;SDS011;22480;50.546;12.292;2022-08-19T08:25:11;126.25;;;50.58;;
36457;SDS011;22480;50.546;12.292;2022-08-19T08:27:40;123.05;;;51.97;;
36457;SDS011;22480;50.546;12.292;2022-08-19T08:30:10;82.33;;;41.00;;
36457;SDS011;22480;50.546;12.292;2022-08-19T08:32:41;87.05;;;43.13;;
36457;SDS011;22480;50.546;12.292;2022-08-19T08:35:08;75.75;;;38.35;;
36457;SDS011;22480;50.546;12.292;2022-08-19T08:37:37;99.60;;;43.33;;
36457;SDS011;22480;50.546;12.292;2022-08-19T08:43:13;85.25;;;40.00;;
36457;SDS011;22480;50.546;12.292;2022-08-19T08:46:06;81.13;;;38.15;;
36457;SDS011;22480;50.546;12.292;2022-08-19T08:48:39;81.80;;;38.35;;
36457;SDS011;22480;50.546;12.292;2022-08-19T08:51:32;109.55;;;40.17;;
36457;SDS011;22480;50.546;12.292;2022-08-19T08:54:04;90.40;;;37.97;;
36457;SDS011;22480;50.546;12.292;2022-08-19T08:56:32;87.60;;;35.58;;
36457;SDS011;22480;50.546;12.292;2022-08-19T08:59:03;70.35;;;34.35;;
36457;SDS011;22480;50.546;12.292;2022-08-19T09:01:33;74.65;;;33.42;;
36457;SDS011;22480;50.546;12.292;2022-08-19T09:04:02;92.00;;;34.90;;
36457;SDS011;22480;50.546;12.292;2022-08-19T09:09:18;97.85;;;38.17;;
36457;SDS011;22480;50.546;12.292;2022-08-19T09:14:39;87.13;;;38.60;;
36457;SDS011;22480;50.546;12.292;2022-08-19T09:17:13;76.57;;;32.92;;
36457;SDS011;22480;50.546;12.292;2022-08-19T09:19:49;70.85;;;34.08;;
36457;SDS011;22480;50.546;12.292;2022-08-19T09:22:17;80.13;;;37.60;;
36457;SDS011;22480;50.546;12.292;2022-08-19T09:24:46;100.00;;;42.10;;
36457;SDS011;22480;50.546;12.292;2022-08-19T09:27:14;129.57;;;54.78;;
36457;SDS011;22480;50.546;12.292;2022-08-19T09:29:39;166.43;;;60.60;;
36457;SDS011;22480;50.546;12.292;2022-08-19T09:32:05;189.05;;;64.55;;
36457;SDS011;22480;50.546;12.292;2022-08-19T09:34:31;178.95;;;65.72;;
36457;SDS011;22480;50.546;12.292;2022-08-19T09:36:57;156.25;;;63.15;;
36457;SDS011;22480;50.546;12.292;2022-08-19T09:39:25;214.05;;;68.72;;
36457;SDS011;22480;50.546;12.292;2022-08-19T09:41:51;193.07;;;68.22;;
36457;SDS011;22480;50.546;12.292;2022-08-19T09:44:18;203.60;;;70.57;;
36457;SDS011;22480;50.546;12.292;2022-08-19T09:46:45;241.07;;;70.50;;
36457;SDS011;22480;50.546;12.292;2022-08-19T09:49:15;191.00;;;68.95;;
36457;SDS011;22480;50.546;12.292;2022-08-19T09:51:44;238.63;;;73.15;;
36457;SDS011;22480;50.546;12.292;2022-08-19T09:54:14;208.10;;;73.05;;
36457;SDS011;22480;50.546;12.292;2022-08-19T09:56:40;185.52;;;66.70;;
36457;SDS011;22480;50.546;12.292;2022-08-19T09:59:06;160.73;;;67.35;;
36457;SDS011;22480;50.546;12.292;2022-08-19T10:04:02;171.73;;;64.38;;
36457;SDS011;22480;50.546;12.292;2022-08-19T10:06:33;154.00;;;60.17;;
36457;SDS011;22480;50.546;12.292;2022-08-19T10:09:00;135.23;;;61.22;;
36457;SDS011;22480;50.546;12.292;2022-08-19T10:11:31;117.97;;;58.03;;
36457;SDS011;22480;50.546;12.292;2022-08-19T10:16:30;144.48;;;59.78;;
36457;SDS011;22480;50.546;12.292;2022-08-19T10:18:58;113.68;;;53.88;;
36457;SDS011;22480;50.546;12.292;2022-08-19T10:21:27;151.63;;;62.15;;
36457;SDS011;22480;50.546;12.292;2022-08-19T10:23:56;141.15;;;58.25;;
36457;SDS011;22480;50.546;12.292;2022-08-19T10:26:29;174.70;;;66.22;;
36457;SDS011;22480;50.546;12.292;2022-08-19T10:28:57;133.13;;;58.22;;
36457;SDS011;22480;50.546;12.292;2022-08-19T10:33:54;127.40;;;56.75;;
36457;SDS011;22480;50.546;12.292;2022-08-19T10:36:26;114.10;;;55.80;;
36457;SDS011;22480;50.546;12.292;2022-08-19T10:38:57;152.10;;;58.00;;
36457;SDS011;22480;50.546;12.292;2022-08-19T10:41:27;119.40;;;58.50;;
36457;SDS011;22480;50.546;12.292;2022-08-19T10:43:56;155.85;;;62.63;;
36457;SDS011;22480;50.546;12.292;2022-08-19T10:46:26;104.72;;;53.17;;
36457;SDS011;22480;50.546;12.292;2022-08-19T10:48:55;76.13;;;42.83;;
36457;SDS011;22480;50.546;12.292;2022-08-19T10:51:20;95.20;;;47.72;;
36457;SDS011;22480;50.546;12.292;2022-08-19T10:54:04;93.75;;;47.15;;
36457;SDS011;22480;50.546;12.292;2022-08-19T10:56:30;95.22;;;46.85;;
36457;SDS011;22480;50.546;12.292;2022-08-19T10:59:16;72.57;;;39.97;;
36457;SDS011;22480;50.546;12.292;2022-08-19T11:01:45;55.03;;;36.47;;
36457;SDS011;22480;50.546;12.292;2022-08-19T11:04:11;56.03;;;35.72;;
36457;SDS011;22480;50.546;12.292;2022-08-19T11:06:41;62.20;;;37.20;;
36457;SDS011;22480;50.546;12.292;2022-08-19T11:09:08;62.13;;;36.55;;
36457;SDS011;22480;50.546;12.292;2022-08-19T11:11:35;78.55;;;37.13;;
36457;SDS011;22480;50.546;12.292;2022-08-19T11:14:06;56.97;;;34.33;;
36457;SDS011;22480;50.546;12.292;2022-08-19T11:16:36;56.20;;;33.00;;
36457;SDS011;22480;50.546;12.292;2022-08-19T11:19:05;48.88;;;30.38;;
36457;SDS011;22480;50.546;12.292;2022-08-19T11:21:34;38.58;;;25.85;;
36457;SDS011;22480;50.546;12.292;2022-08-19T11:24:06;36.70;;;26.77;;
36457;SDS011;22480;50.546;12.292;2022-08-19T11:26:35;30.53;;;23.63;;
36457;SDS011;22480;50.546;12.292;2022-08-19T11:29:02;29.10;;;22.92;;
36457;SDS011;22480;50.546;12.292;2022-08-19T11:31:30;26.33;;;22.95;;
36457;SDS011;22480;50.546;12.292;2022-08-19T11:33:59;32.08;;;25.20;;
36457;SDS011;22480;50.546;12.292;2022-08-19T11:36:27;36.53;;;24.70;;
36457;SDS011;22480;50.546;12.292;2022-08-19T11:38:53;40.00;;;28.35;;
36457;SDS011;22480;50.546;12.292;2022-08-19T11:41:21;39.03;;;30.85;;
36457;SDS011;22480;50.546;12.292;2022-08-19T11:43:50;53.88;;;32.75;;
36457;SDS011;22480;50.546;12.292;2022-08-19T11:46:18;52.22;;;35.72;;
36457;SDS011;22480;50.546;12.292;2022-08-19T11:48:45;44.58;;;34.42;;
36457;SDS011;22480;50.546;12.292;2022-08-19T11:51:12;52.25;;;34.30;;
36457;SDS011;22480;50.546;12.292;2022-08-19T11:53:42;45.67;;;33.22;;
36457;SDS011;22480;50.546;12.292;2022-08-19T11:56:08;41.72;;;31.38;;
36457;SDS011;22480;50.546;12.292;2022-08-19T11:58:35;44.08;;;30.95;;
36457;SDS011;22480;50.546;12.292;2022-08-19T12:01:01;42.50;;;31.60;;
36457;SDS011;22480;50.546;12.292;2022-08-19T12:03:30;46.88;;;32.80;;
36457;SDS011;22480;50.546;12.292;2022-08-19T12:05:55;43.55;;;30.83;;
36457;SDS011;22480;50.546;12.292;2022-08-19T12:08:21;37.60;;;29.77;;
36457;SDS011;22480;50.546;12.292;2022-08-19T12:10:47;45.42;;;30.33;;
36457;SDS011;22480;50.546;12.292;2022-08-19T12:13:13;40.78;;;28.98;;
36457;SDS011;22480;50.546;12.292;2022-08-19T12:15:43;40.47;;;29.67;;
36457;SDS011;22480;50.546;12.292;2022-08-19T12:18:10;39.83;;;29.17;;
36457;SDS011;22480;50.546;12.292;2022-08-19T12:20:39;41.50;;;30.08;;
36457;SDS011;22480;50.546;12.292;2022-08-19T12:23:06;45.60;;;30.50;;
36457;SDS011;22480;50.546;12.292;2022-08-19T12:25:34;55.85;;;33.42;;
36457;SDS011;22480;50.546;12.292;2022-08-19T12:28:01;49.58;;;33.45;;
36457;SDS011;22480;50.546;12.292;2022-08-19T12:30:28;55.55;;;35.25;;
36457;SDS011;22480;50.546;12.292;2022-08-19T12:32:54;49.65;;;35.03;;
36457;SDS011;22480;50.546;12.292;2022-08-19T12:35:20;62.85;;;36.78;;
36457;SDS011;22480;50.546;12.292;2022-08-19T12:37:46;67.68;;;36.92;;
36457;SDS011;22480;50.546;12.292;2022-08-19T12:40:15;84.10;;;41.17;;
36457;SDS011;22480;50.546;12.292;2022-08-19T12:42:42;76.35;;;39.33;;
36457;SDS011;22480;50.546;12.292;2022-08-19T12:45:11;67.75;;;37.97;;
36457;SDS011;22480;50.546;12.292;2022-08-19T12:47:38;70.43;;;37.60;;
36457;SDS011;22480;50.546;12.292;2022-08-19T12:50:04;66.32;;;37.22;;
36457;SDS011;22480;50.546;12.292;2022-08-19T12:52:33;73.85;;;37.95;;
36457;SDS011;22480;50.546;12.292;2022-08-19T12:55:02;69.20;;;35.67;;
36457;SDS011;22480;50.546;12.292;2022-08-19T12:57:31;62.08;;;36.22;;
36457;SDS011;22480;50.546;12.292;2022-08-19T13:00:05;64.47;;;35.57;;
36457;SDS011;22480;50.546;12.292;2022-08-19T13:02:37;59.42;;;34.80;;
36457;SDS011;22480;50.546;12.292;2022-08-19T13:05:07;65.50;;;35.45;;
36457;SDS011;22480;50.546;12.292;2022-08-19T13:07:35;63.55;;;35.03;;
36457;SDS011;22480;50.546;12.292;2022-08-19T13:10:05;60.90;;;33.22;;
36457;SDS011;22480;50.546;12.292;2022-08-19T13:12:32;44.40;;;28.75;;
36457;SDS011;22480;50.546;12.292;2022-08-19T13:14:57;42.67;;;29.67;;
36457;SDS011;22480;50.546;12.292;2022-08-19T13:17:23;39.20;;;27.40;;
36457;SDS011;22480;50.546;12.292;2022-08-19T13:19:48;37.47;;;25.90;;
36457;SDS011;22480;50.546;12.292;2022-08-19T13:22:15;35.78;;;26.20;;
36457;SDS011;22480;50.546;12.292;2022-08-19T13:24:41;39.30;;;27.83;;
36457;SDS011;22480;50.546;12.292;2022-08-19T13:27:07;41.83;;;28.05;;
36457;SDS011;22480;50.546;12.292;2022-08-19T13:29:33;43.75;;;29.08;;
36457;SDS011;22480;50.546;12.292;2022-08-19T13:32:17;36.35;;;27.80;;
36457;SDS011;22480;50.546;12.292;2022-08-19T13:35:02;38.28;;;27.63;;
36457;SDS011;22480;50.546;12.292;2022-08-19T13:37:28;36.30;;;27.13;;
36457;SDS011;22480;50.546;12.292;2022-08-19T13:40:14;36.72;;;27.20;;
36457;SDS011;22480;50.546;12.292;2022-08-19T13:42:43;32.85;;;27.60;;
36457;SDS011;22480;50.546;12.292;2022-08-19T13:45:11;37.13;;;27.90;;
36457;SDS011;22480;50.546;12.292;2022-08-19T13:47:38;37.70;;;27.65;;
36457;SDS011;22480;50.546;12.292;2022-08-19T13:50:14;43.10;;;30.33;;
36457;SDS011;22480;50.546;12.292;2022-08-19T13:52:47;43.10;;;29.80;;
36457;SDS011;22480;50.546;12.292;2022-08-19T13:55:13;35.40;;;27.75;;
36457;SDS011;22480;50.546;12.292;2022-08-19T13:57:40;39.88;;;29.42;;
36457;SDS011;22480;50.546;12.292;2022-08-19T14:00:11;41.00;;;29.52;;
36457;SDS011;22480;50.546;12.292;2022-08-19T14:02:39;43.97;;;30.95;;
36457;SDS011;22480;50.546;12.292;2022-08-19T14:05:06;43.50;;;31.85;;
36457;SDS011;22480;50.546;12.292;2022-08-19T14:07:36;46.00;;;30.05;;
36457;SDS011;22480;50.546;12.292;2022-08-19T14:10:03;46.17;;;31.98;;
36457;SDS011;22480;50.546;12.292;2022-08-19T14:12:31;38.15;;;29.83;;
36457;SDS011;22480;50.546;12.292;2022-08-19T14:14:57;42.25;;;30.17;;
36457;SDS011;22480;50.546;12.292;2022-08-19T14:17:23;45.75;;;31.80;;
36457;SDS011;22480;50.546;12.292;2022-08-19T14:19:50;40.70;;;29.73;;
36457;SDS011;22480;50.546;12.292;2022-08-19T14:22:22;46.75;;;33.25;;
36457;SDS011;22480;50.546;12.292;2022-08-19T14:24:47;45.78;;;31.85;;
36457;SDS011;22480;50.546;12.292;2022-08-19T14:27:14;47.83;;;30.98;;
36457;SDS011;22480;50.546;12.292;2022-08-19T14:29:40;47.65;;;30.60;;
36457;SDS011;22480;50.546;12.292;2022-08-19T14:32:05;54.88;;;32.75;;
36457;SDS011;22480;50.546;12.292;2022-08-19T14:34:31;48.63;;;31.27;;
36457;SDS011;22480;50.546;12.292;2022-08-19T14:36:58;57.28;;;32.95;;
36457;SDS011;22480;50.546;12.292;2022-08-19T14:39:24;53.28;;;31.75;;
36457;SDS011;22480;50.546;12.292;2022-08-19T14:41:50;54.00;;;34.05;;
36457;SDS011;22480;50.546;12.292;2022-08-19T14:44:16;59.38;;;33.55;;
36457;SDS011;22480;50.546;12.292;2022-08-19T14:46:41;60.05;;;33.83;;
36457;SDS011;22480;50.546;12.292;2022-08-19T14:49:10;53.28;;;31.67;;
36457;SDS011;22480;50.546;12.292;2022-08-19T14:51:35;58.80;;;32.63;;
36457;SDS011;22480;50.546;12.292;2022-08-19T14:54:01;54.67;;;32.47;;
36457;SDS011;22480;50.546;12.292;2022-08-19T14:56:27;62.13;;;34.75;;
36457;SDS011;22480;50.546;12.292;2022-08-19T14:58:54;59.00;;;35.70;;
36457;SDS011;22480;50.546;12.292;2022-08-19T15:01:22;64.20;;;34.22;;
36457;SDS011;22480;50.546;12.292;2022-08-19T15:03:49;61.92;;;34.83;;
36457;SDS011;22480;50.546;12.292;2022-08-19T15:06:18;62.85;;;35.85;;
36457;SDS011;22480;50.546;12.292;2022-08-19T15:08:43;69.63;;;37.05;;
36457;SDS011;22480;50.546;12.292;2022-08-19T15:11:10;63.55;;;35.10;;
36457;SDS011;22480;50.546;12.292;2022-08-19T15:13:39;78.13;;;37.95;;
36457;SDS011;22480;50.546;12.292;2022-08-19T15:16:05;78.50;;;37.50;;
36457;SDS011;22480;50.546;12.292;2022-08-19T15:18:32;71.82;;;37.63;;
36457;SDS011;22480;50.546;12.292;2022-08-19T15:20:57;64.00;;;36.90;;
36457;SDS011;22480;50.546;12.292;2022-08-19T15:23:24;67.45;;;37.03;;
36457;SDS011;22480;50.546;12.292;2022-08-19T15:25:50;59.05;;;36.33;;
36457;SDS011;22480;50.546;12.292;2022-08-19T15:28:20;68.93;;;38.40;;
36457;SDS011;22480;50.546;12.292;2022-08-19T15:30:50;70.55;;;37.40;;
36457;SDS011;22480;50.546;12.292;2022-08-19T15:33:16;57.35;;;36.30;;
36457;SDS011;22480;50.546;12.292;2022-08-19T15:35:44;59.05;;;35.20;;
36457;SDS011;22480;50.546;12.292;2022-08-19T15:38:11;58.85;;;36.50;;
36457;SDS011;22480;50.546;12.292;2022-08-19T15:40:38;56.90;;;36.90;;
36457;SDS011;22480;50.546;12.292;2022-08-19T15:43:05;60.33;;;36.17;;
36457;SDS011;22480;50.546;12.292;2022-08-19T15:45:31;51.30;;;34.40;;